Detalii statie AGRALMIXT [00001CED]

Toti senzorii

Date Temperatura solului [C]Precipitatii [mm]Voltaj baterie [mV]Leaf Wetness [Min]HC Air temperature [C]HC Relative humidity [%]Punctul de roua [C]
medieminmaxsumaultimatimpmedieminmaxmediemediemin
2019-02-21 00:00:00 0 6678 3.12 1.53 4.22 76.91 -0.5 -1.8
2019-02-21 01:00:00 0 6668 3.07 1.19 4.01 75.15 -0.9 -1.9
2019-02-21 02:00:00 0 6668 3.39 2.28 4.32 73.77 -0.9 -1.4
2019-02-21 03:00:00 0 6678 3.97 2.33 4.88 71.46 -0.7 -1.5
2019-02-21 04:00:00 0 6668 5.03 3.25 5.36 65.61 -0.8 -1.2
2019-02-21 05:00:00 0 6668 5.39 5.13 5.58 63.81 -0.9 -1.1
2019-02-21 06:00:00 0 6678 4.77 4.08 5.35 67.19 -0.8 -0.9
2019-02-21 07:00:00 0 6668 4.34 3.99 4.54 70.42 -0.6 -0.8
2019-02-21 08:00:00 0 6796 4.52 4.38 4.8 70.19 -0.4 -0.7
2019-02-21 09:00:00 0 7362 5.67 4.95 6.45 66.66 -0.1 -0.3
2019-02-21 10:00:00 0 7352 7.12 6.5 8.05 62.75 0.3 0
2019-02-21 11:00:00 0 7352 8.46 8.1 9.08 54.26 -0.3 -1.9
2019-02-21 12:00:00 0 7264 8.64 8.38 8.84 47.38 -2 -2.8
2019-02-21 13:00:00 0 7332 9.47 9.01 9.8 43.91 -2.2 -2.6
2019-02-21 14:00:00 0 7332 8.89 8.73 9.13 48.06 -1.5 -2.1
2019-02-21 15:00:00 0 7196 9.71 9.15 10.07 45.42 -1.6 -2.2
2019-02-21 16:00:00 0 7148 10.01 9.75 10.16 41.36 -2.6 -2.9
2019-02-21 17:00:00 0 7070 9.9 9.51 10.14 42.31 -2.3 -2.6
2019-02-21 18:00:00 0 6864 9.12 8.66 9.44 45.5 -2.1 -2.3
2019-02-21 19:00:00 0 6776 8 7.19 8.66 50.62 -1.6 -2
2019-02-21 20:00:00 0 6738 7.93 6.94 8.36 52.67 -1.2 -1.6
2019-02-21 21:00:00 0 6718 7.68 7.23 8.23 57.68 -0.2 -0.9
2019-02-21 22:00:00 0 6708 7.22 6.59 7.42 59.92 -0.1 -0.2
2019-02-21 23:00:00 0 6708 6.69 6.49 6.95 61 -0.3 -0.9
2019-02-22 00:00:00 0 6698 6.94 6.5 7.21 57.77 -0.8 -1.1
2019-02-22 01:00:00 0 6698 6.87 6.69 7.13 61.88 0 -0.3
2019-02-22 02:00:00 0 6688 6.41 6.14 6.72 64.38 0 -0.3
2019-02-22 03:00:00 0 6688 6.01 5.46 6.3 71.84 1.2 0.6
2019-02-22 04:00:00 0.2 6678 5.03 4.78 5.3 86.3 2.8 2.3
2019-02-22 05:00:00 0.2 6678 4.79 4.72 4.91 89.61 3.1 3
2019-02-22 06:00:00 0.4 6668 4.51 4.36 4.84 92.29 3.2 3
2019-02-22 07:00:00 0.4 6668 4.26 4.14 4.34 96.61 3.6 3.5
2019-02-22 08:00:00 0.8 6668 4.14 4.02 4.28 99.38 3.9 3.8
2019-02-22 09:00:00 1.4 6688 3.45 1.05 4.11 100 3.4 1
2019-02-22 10:00:00 0 6738 0.2 -0.45 0.97 100 0.2 -0.3
2019-02-22 11:00:00 0 6738 -0.59 -0.89 -0.45 100 -0.4 -0.7
2019-02-22 12:00:00 0 7000 -1.28 -1.83 -1.03 99.93 -1.1 -1.8
2019-02-22 13:00:00 0 7226 -1.73 -1.92 -1.41 98.16 -1.8 -2.2
2019-02-22 14:00:00 0 7254 -1.7 -2.06 -1.47 96.73 -2 -2.4
2019-02-22 15:00:00 0 7342 -2.01 -2.41 -1.25 92.43 -3 -3.3
2019-02-22 16:00:00 0 7332 -1.4 -1.71 -1.04 73.22 -5.5 -7.1
2019-02-22 17:00:00 0 7148 -1.93 -2.09 -1.68 61.49 -8.2 -8.7
2019-02-22 18:00:00 0.2 6884 -2.65 -3.09 -2.19 62.71 -8.6 -9.2
2019-02-22 19:00:00 0 6748 -3.21 -3.55 -3.06 61.52 -9.5 -10.1
2019-02-22 20:00:00 0 6718 -3.64 -4.36 -3.12 64.01 -9.4 -9.9